Search for airport 
image banner adimage banner ad
image banner ad

WITN - Sabang / Maimun Saleh

Located in , Indonesia

ICAO - , IATA - SBG

Data provided by Airmate  

General information

Coordinates: N5°52'35" E95°20'15"
Elevation is 433 feet MSL.
 
Rated:
View ratings: [VIEW]


View others Airports in Aceh

Operational data

Open for public use
Current time UTC:
Current local time:
TAF: TAF WITT 211100Z 2112/2212 15008KT 9999 SCT018 TEMPO 2117/2120 4000 TSRA FEW015CB BKN017
View NOTAMs / SUP AIP / TFR affecting this airport [VIEW]
Communications frequencies: [VIEW]

Runways:

RWY identifierQFULength (ft)Width (ft)SurfaceLDA (ft)
1098°607098
28278°607098

Airport contact information

Address: Indonesia

Satellite view of WITN